createdAt,value
2017-12-29T00:02:24.240Z,4.43
2017-12-29T00:04:53.158Z,5.80
2017-12-29T00:07:20.890Z,7.23
2017-12-29T00:09:51.703Z,6.13
2017-12-29T00:12:20.048Z,6.33
2017-12-29T00:17:21.473Z,6.03
2017-12-29T00:20:10.809Z,5.27
2017-12-29T00:26:35.588Z,5.80
2017-12-29T00:29:06.311Z,5.77
2017-12-29T00:31:34.517Z,5.37
2017-12-29T00:34:03.255Z,5.50
2017-12-29T00:36:30.836Z,5.20
2017-12-29T00:39:24.020Z,5.27
2017-12-29T00:41:54.828Z,5.70
2017-12-29T00:48:50.306Z,4.70
2017-12-29T00:51:31.233Z,4.50
2017-12-29T00:54:08.221Z,4.57
2017-12-29T00:56:40.005Z,5.00
2017-12-29T00:59:10.310Z,3.93
2017-12-29T01:01:44.472Z,4.93
2017-12-29T01:04:27.369Z,4.53
2017-12-29T01:07:00.522Z,4.63
2017-12-29T01:09:28.186Z,5.40
2017-12-29T01:11:56.743Z,4.70
2017-12-29T01:14:25.355Z,4.90
2017-12-29T01:16:53.218Z,4.77
2017-12-29T01:19:21.160Z,5.93
2017-12-29T01:21:49.411Z,5.43
2017-12-29T01:24:17.642Z,5.63
2017-12-29T01:26:45.930Z,5.53
2017-12-29T01:29:13.714Z,6.20
2017-12-29T01:31:42.665Z,5.40
2017-12-29T01:34:31.829Z,4.90
2017-12-29T01:36:59.504Z,4.50
2017-12-29T01:39:27.280Z,5.60
2017-12-29T01:41:55.029Z,5.67
2017-12-29T01:44:22.805Z,4.70
2017-12-29T01:46:50.438Z,4.00
2017-12-29T01:49:19.099Z,4.07
2017-12-29T01:51:49.458Z,4.47
2017-12-29T01:54:17.161Z,3.47
2017-12-29T01:56:44.699Z,5.27
2017-12-29T01:59:12.843Z,4.80
2017-12-29T02:01:40.449Z,4.93
2017-12-29T02:04:08.064Z,5.40
2017-12-29T02:06:35.599Z,4.20
2017-12-29T02:09:03.201Z,4.83
2017-12-29T02:11:30.754Z,4.37
2017-12-29T02:13:58.616Z,4.87
2017-12-29T02:16:27.629Z,5.63
2017-12-29T02:18:55.352Z,4.90
2017-12-29T02:21:23.691Z,4.77
2017-12-29T02:23:51.293Z,5.47
2017-12-29T02:26:19.322Z,5.73
2017-12-29T02:28:48.588Z,4.10
2017-12-29T02:31:17.157Z,5.30
2017-12-29T02:33:44.878Z,4.67
2017-12-29T02:40:00.744Z,5.47
2017-12-29T02:42:28.392Z,6.37
2017-12-29T02:44:57.507Z,5.70
2017-12-29T02:47:25.884Z,4.93
2017-12-29T02:49:54.891Z,5.07
2017-12-29T02:52:22.509Z,4.57
2017-12-29T02:54:58.009Z,5.67
2017-12-29T02:57:26.583Z,4.40
2017-12-29T02:59:55.110Z,5.87
2017-12-29T03:02:49.502Z,5.77
2017-12-29T03:05:20.788Z,5.37
2017-12-29T03:07:50.944Z,5.20
2017-12-29T03:10:20.866Z,4.93
2017-12-29T03:12:48.915Z,5.20
2017-12-29T03:15:16.466Z,6.67
2017-12-29T03:17:46.124Z,4.90
2017-12-29T03:20:13.864Z,5.17
2017-12-29T03:29:25.993Z,4.20
2017-12-29T03:31:55.555Z,5.27
2017-12-29T03:34:28.801Z,5.40
2017-12-29T03:37:02.171Z,5.30
2017-12-29T03:40:23.536Z,6.23
2017-12-29T03:42:53.481Z,6.17
2017-12-29T03:45:25.007Z,6.43
2017-12-29T03:47:54.743Z,6.13
2017-12-29T03:50:24.852Z,5.87
2017-12-29T03:53:08.719Z,4.63
2017-12-29T03:55:47.287Z,4.30
2017-12-29T03:58:16.799Z,6.05
2017-12-29T04:01:28.387Z,4.30
2017-12-29T04:06:33.970Z,6.80
2017-12-29T04:09:04.399Z,7.00
2017-12-29T04:14:05.073Z,5.75
2017-12-29T04:33:27.118Z,6.03
2017-12-29T04:43:02.141Z,8.75
2017-12-29T04:45:31.442Z,8.38
2017-12-29T04:48:01.461Z,9.40
2017-12-29T04:53:05.336Z,8.95
2017-12-29T04:55:38.184Z,9.35
2017-12-29T05:01:43.229Z,7.10
2017-12-29T05:04:14.090Z,7.75
2017-12-29T05:13:01.340Z,11.63
2017-12-29T05:21:59.526Z,8.83
2017-12-29T05:24:32.198Z,14.30
2017-12-29T05:27:01.301Z,15.87
2017-12-29T05:29:34.783Z,17.30
2017-12-29T05:35:47.318Z,14.23
2017-12-29T05:38:18.372Z,12.17
2017-12-29T05:40:49.381Z,13.13
2017-12-29T05:43:35.358Z,15.50
2017-12-29T05:46:07.055Z,14.97
2017-12-29T05:48:38.852Z,18.17
2017-12-29T06:57:43.200Z,12.60
2017-12-29T07:00:10.868Z,9.00
2017-12-29T07:02:38.412Z,11.13
2017-12-29T07:05:06.445Z,13.13
2017-12-29T07:07:34.332Z,19.30
2017-12-29T07:10:01.901Z,25.87
2017-12-29T07:12:29.735Z,33.43
2017-12-29T07:14:58.188Z,29.90
2017-12-29T07:17:25.877Z,31.50
2017-12-29T07:19:53.786Z,28.20
2017-12-29T07:22:21.373Z,29.10
2017-12-29T07:24:49.084Z,29.10
2017-12-29T07:27:17.726Z,28.20
2017-12-29T07:29:46.173Z,29.70
2017-12-29T07:32:15.832Z,27.17
2017-12-29T07:34:43.435Z,34.30
2017-12-29T07:37:11.952Z,35.50
2017-12-29T07:39:39.652Z,32.60
2017-12-29T07:42:08.181Z,30.13
2017-12-29T07:44:37.672Z,32.83
2017-12-29T07:47:06.916Z,31.10
2017-12-29T07:49:57.700Z,30.77
2017-12-29T07:52:25.785Z,29.63
2017-12-29T07:54:53.878Z,30.17
2017-12-29T07:57:23.727Z,25.93
2017-12-29T07:59:58.942Z,22.50
2017-12-29T08:02:26.511Z,21.17
2017-12-29T08:04:54.219Z,21.47
2017-12-29T08:07:21.851Z,17.53
2017-12-29T08:09:49.773Z,21.23
2017-12-29T08:12:17.740Z,20.50
2017-12-29T08:14:46.330Z,21.50
2017-12-29T08:17:14.108Z,22.63
2017-12-29T08:19:41.850Z,21.97
2017-12-29T08:22:09.696Z,25.90
2017-12-29T08:24:42.024Z,29.83
2017-12-29T08:27:12.016Z,25.80
2017-12-29T08:29:39.857Z,20.20
2017-12-29T08:32:07.839Z,14.37
2017-12-29T08:34:36.667Z,13.63
2017-12-29T08:37:04.427Z,14.20
2017-12-29T08:39:33.096Z,14.80
2017-12-29T08:42:01.046Z,14.33
2017-12-29T08:44:29.403Z,15.13
2017-12-29T08:46:57.483Z,16.03
2017-12-29T08:49:25.356Z,14.20
2017-12-29T08:51:54.585Z,16.20
2017-12-29T08:54:22.359Z,16.67
2017-12-29T08:56:50.990Z,15.77
2017-12-29T08:59:20.033Z,15.30
2017-12-29T09:01:47.731Z,14.93
2017-12-29T09:04:15.286Z,15.73
2017-12-29T09:06:56.228Z,15.50
2017-12-29T09:09:28.550Z,13.90
2017-12-29T09:11:56.141Z,17.07
2017-12-29T09:14:23.796Z,18.30
2017-12-29T09:16:51.510Z,19.97
2017-12-29T09:19:19.135Z,20.97
2017-12-29T09:21:46.847Z,20.70
2017-12-29T09:24:15.024Z,21.27
2017-12-29T09:26:42.846Z,18.93
2017-12-29T09:29:10.457Z,21.50
2017-12-29T09:31:38.110Z,23.23
2017-12-29T09:34:05.715Z,22.87
2017-12-29T09:36:33.491Z,22.63
2017-12-29T09:39:02.127Z,22.47
2017-12-29T09:41:29.701Z,22.00
2017-12-29T09:43:57.350Z,23.80
2017-12-29T09:46:25.175Z,22.43
2017-12-29T09:48:52.883Z,22.97
2017-12-29T09:51:20.670Z,20.00
2017-12-29T09:53:50.503Z,17.40
2017-12-29T09:56:18.405Z,17.57
2017-12-29T10:02:21.465Z,20.97
2017-12-29T10:07:38.978Z,19.47
2017-12-29T10:13:55.670Z,21.87
2017-12-29T10:23:00.136Z,24.93
2017-12-29T10:25:54.607Z,25.60
2017-12-29T10:28:25.997Z,28.10
2017-12-29T10:30:53.656Z,27.67
2017-12-29T10:45:41.223Z,35.23
2017-12-29T10:51:55.220Z,41.83
2017-12-29T10:54:22.817Z,43.00
2017-12-29T10:56:50.418Z,47.67
2017-12-29T10:59:27.123Z,43.30
2017-12-29T11:01:56.291Z,33.63
2017-12-29T11:04:34.631Z,30.50
2017-12-29T11:07:03.365Z,32.47
2017-12-29T11:09:40.893Z,33.10
2017-12-29T11:12:12.471Z,34.83
2017-12-29T11:14:49.653Z,37.43
2017-12-29T11:17:18.271Z,36.23
2017-12-29T11:19:47.764Z,39.07
2017-12-29T11:22:16.347Z,38.30
2017-12-29T11:24:45.386Z,37.30
2017-12-29T11:27:14.968Z,36.70
2017-12-29T11:29:43.335Z,37.30
2017-12-29T11:32:15.438Z,41.70
2017-12-29T13:12:01.436Z,39.77
2017-12-29T13:14:28.986Z,40.97
2017-12-29T13:17:06.020Z,45.10
2017-12-29T13:19:33.554Z,39.83
2017-12-29T13:22:01.120Z,41.50
2017-12-29T13:24:35.446Z,36.90
2017-12-29T13:27:03.009Z,34.60
2017-12-29T13:29:32.764Z,38.57
2017-12-29T13:32:13.888Z,35.30
2017-12-29T13:34:55.302Z,34.80
2017-12-29T13:41:31.127Z,25.50
2017-12-29T13:43:58.766Z,27.80
2017-12-29T13:46:46.034Z,24.80
2017-12-29T13:49:21.240Z,23.70
2017-12-29T13:51:49.105Z,21.30
2017-12-29T13:54:17.924Z,22.57
2017-12-29T13:59:57.901Z,24.00
2017-12-29T14:05:24.625Z,22.07
2017-12-29T14:08:00.362Z,20.10
2017-12-29T14:10:32.943Z,15.70
2017-12-29T14:13:09.963Z,18.80
2017-12-29T14:15:44.480Z,19.80
2017-12-29T14:24:16.610Z,20.63
2017-12-29T14:37:17.667Z,19.60
2017-12-29T14:40:01.344Z,19.13
2017-12-29T14:42:35.029Z,21.13
2017-12-29T14:45:26.453Z,21.47
2017-12-29T14:54:56.523Z,25.10
2017-12-29T14:57:42.761Z,25.10
2017-12-29T15:03:04.813Z,20.10
2017-12-29T15:13:11.352Z,7.63
2017-12-29T15:33:34.111Z,7.07
2017-12-29T15:42:52.891Z,8.13
2017-12-29T15:48:41.340Z,7.30
2017-12-29T15:51:14.555Z,8.00
2017-12-29T15:57:48.525Z,7.97
2017-12-29T16:00:52.313Z,8.63
2017-12-29T16:06:55.010Z,10.37
2017-12-29T16:10:26.936Z,9.07
2017-12-29T16:13:01.863Z,11.00
2017-12-29T16:15:35.669Z,12.60
2017-12-29T16:20:54.357Z,11.53
2017-12-29T16:23:31.596Z,13.77
2017-12-29T16:26:05.284Z,13.77
2017-12-29T16:28:44.796Z,12.60
2017-12-29T16:31:25.985Z,12.00
2017-12-29T16:37:06.383Z,11.80
2017-12-29T16:39:51.722Z,11.20
2017-12-29T16:42:25.446Z,9.43
2017-12-29T16:45:10.195Z,9.70
2017-12-29T16:47:45.287Z,11.07
2017-12-29T16:50:15.225Z,10.10
2017-12-29T16:52:46.625Z,13.60
2017-12-29T16:57:49.699Z,11.37
2017-12-29T17:00:19.141Z,12.67
2017-12-29T17:09:37.355Z,7.78
2017-12-29T17:18:53.801Z,7.32
2017-12-29T17:21:36.611Z,6.60
2017-12-29T17:24:48.506Z,9.95
2017-12-29T17:30:23.967Z,6.87
2017-12-29T17:39:56.193Z,7.32
2017-12-29T17:42:27.495Z,9.07
2017-12-29T17:52:13.526Z,12.35
2017-12-29T20:00:54.753Z,10.25
2017-12-29T20:03:22.366Z,11.38
2017-12-29T20:05:50.247Z,12.75
2017-12-29T20:08:19.274Z,11.77
2017-12-29T20:10:46.944Z,11.32
2017-12-29T20:13:14.549Z,11.20
2017-12-29T20:15:42.143Z,10.07
2017-12-29T20:18:10.017Z,10.32
2017-12-29T20:20:38.375Z,11.07
2017-12-29T20:23:09.789Z,10.20
2017-12-29T20:25:39.945Z,9.75
2017-12-29T20:28:07.773Z,11.80
2017-12-29T20:33:08.091Z,10.75
2017-12-29T20:35:39.938Z,9.98
2017-12-29T20:38:08.556Z,9.90
2017-12-29T20:40:38.541Z,11.27
2017-12-29T20:43:06.897Z,9.52
2017-12-29T20:45:36.195Z,9.95
2017-12-29T20:48:09.957Z,11.25
2017-12-29T20:50:41.127Z,15.68
2017-12-29T20:53:09.300Z,10.88
2017-12-29T20:55:45.976Z,11.35
2017-12-29T20:58:15.141Z,9.82
2017-12-29T21:00:42.704Z,10.30
2017-12-29T21:03:10.317Z,10.18
2017-12-29T21:05:37.970Z,10.10
2017-12-29T21:08:06.303Z,10.80
2017-12-29T21:10:34.893Z,10.02
2017-12-29T21:13:03.332Z,9.48
2017-12-29T21:15:30.945Z,10.35
2017-12-29T21:17:58.609Z,10.40
2017-12-29T21:20:34.084Z,9.63
2017-12-29T21:23:02.685Z,8.82
2017-12-29T21:26:12.483Z,9.25
2017-12-29T21:28:48.681Z,9.15
2017-12-29T21:31:31.401Z,9.00
2017-12-29T21:39:07.671Z,9.32
2017-12-29T21:41:35.452Z,10.05
2017-12-29T21:44:03.346Z,10.60
2017-12-29T21:46:38.431Z,9.20
2017-12-29T21:49:06.114Z,10.43
2017-12-29T21:51:33.762Z,9.65
2017-12-29T21:54:01.424Z,12.02
2017-12-29T21:56:32.166Z,10.20
2017-12-29T21:58:59.869Z,9.85
2017-12-29T22:01:36.710Z,10.02
2017-12-29T22:04:18.072Z,9.32
2017-12-29T22:06:47.130Z,10.45
2017-12-29T22:14:45.795Z,10.00
2017-12-29T22:20:17.720Z,10.55
2017-12-29T22:22:46.397Z,9.15
2017-12-29T22:25:20.569Z,10.20
2017-12-29T22:27:49.037Z,11.00
2017-12-29T22:30:20.429Z,9.70
2017-12-29T22:53:08.595Z,9.38
2017-12-29T23:05:20.001Z,9.48
2017-12-29T23:07:55.428Z,8.82
2017-12-29T23:13:07.340Z,11.12
2017-12-29T23:15:50.734Z,10.20
2017-12-29T23:18:21.152Z,11.07
2017-12-29T23:20:48.737Z,10.45
2017-12-29T23:23:20.128Z,10.65
2017-12-29T23:26:05.582Z,10.48
2017-12-29T23:35:32.600Z,10.82
2017-12-29T23:38:02.480Z,9.43
2017-12-29T23:43:24.205Z,10.07
2017-12-29T23:46:06.050Z,10.02
2017-12-29T23:48:42.932Z,10.88
2017-12-29T23:51:16.448Z,9.50
